Time;durP1;ratioP1;P1;durP2;ratioP2;P2;SDS_P1;SDS_P2;PMS_P1;PMS_P2;Temp;Humidity;BMP_temperature;BMP_pressure;BME280_temperature;BME280_humidity;BME280_pressure;Samples;Min_cycle;Max_cycle;Signal;HPM_P1;HPM_P2
2023/06/05 00:00:47;;;;;;;5.03;2.90;;;18.90;15.30;;;;;;5014976;28;20472;-71
2023/06/05 00:03:33;;;;;;;3.20;1.87;;;18.80;15.40;;;;;;5011879;28;21451;-71
2023/06/05 00:06:18;;;;;;;5.63;2.30;;;18.80;15.30;;;;;;5009959;28;20446;-71
2023/06/05 00:09:04;;;;;;;5.07;1.93;;;18.80;15.10;;;;;;5007639;28;21077;-71
2023/06/05 00:11:50;;;;;;;7.93;1.93;;;18.80;15.10;;;;;;5010495;28;20558;-71
2023/06/05 00:14:37;;;;;;;2.93;2.00;;;18.80;15.20;;;;;;5010985;28;20963;-71
2023/06/05 00:17:22;;;;;;;7.47;2.30;;;18.80;15.20;;;;;;5010456;28;20969;-71
2023/06/05 00:20:09;;;;;;;3.40;1.90;;;18.70;16.50;;;;;;5009225;28;20456;-71
2023/06/05 00:22:54;;;;;;;4.70;2.10;;;18.50;18.20;;;;;;5008188;28;20465;-71
2023/06/05 00:25:41;;;;;;;2.90;1.80;;;18.30;19.40;;;;;;5011147;28;20424;-71
2023/06/05 00:28:27;;;;;;;4.60;2.00;;;18.10;20.50;;;;;;5011016;28;20469;-71
2023/06/05 00:31:13;;;;;;;3.57;1.63;;;17.90;20.00;;;;;;5009884;28;20459;-71
2023/06/05 00:33:58;;;;;;;2.83;1.57;;;17.60;20.50;;;;;;5007648;28;20826;-71
2023/06/05 00:36:44;;;;;;;3.57;1.77;;;17.40;24.00;;;;;;5010318;28;20450;-71
2023/06/05 00:39:30;;;;;;;4.57;1.97;;;17.40;24.30;;;;;;5010084;28;20440;-71
2023/06/05 00:42:15;;;;;;;5.83;1.70;;;17.20;25.00;;;;;;5011029;28;20504;-71
2023/06/05 00:45:01;;;;;;;2.60;1.43;;;17.00;25.00;;;;;;5010693;28;20432;-71
2023/06/05 00:47:48;;;;;;;2.87;1.60;;;16.90;27.10;;;;;;5010851;28;20446;-71
2023/06/05 00:50:34;;;;;;;2.37;1.57;;;16.90;26.10;;;;;;5010259;28;20914;-71
2023/06/05 00:53:20;;;;;;;3.40;1.93;;;16.80;26.70;;;;;;5008349;28;20967;-71
2023/06/05 00:56:06;;;;;;;4.17;2.03;;;16.80;24.90;;;;;;5009766;28;20984;-71
2023/06/05 00:58:54;;;;;;;3.23;1.80;;;16.80;25.70;;;;;;5010684;28;20469;-71
2023/06/05 01:01:40;;;;;;;5.70;2.50;;;16.90;21.90;;;;;;5004952;28;20482;-71
2023/06/05 01:04:27;;;;;;;3.90;1.93;;;17.10;21.20;;;;;;5008097;28;20942;-71
2023/06/05 01:07:14;;;;;;;4.87;2.60;;;17.10;19.50;;;;;;5006434;28;20449;-71
2023/06/05 01:09:59;;;;;;;4.17;1.73;;;17.30;18.50;;;;;;5008488;28;20445;-71
2023/06/05 01:12:51;;;;;;;4.40;2.20;;;17.50;18.30;;;;;;5007524;28;20460;-71
2023/06/05 01:15:38;;;;;;;3.80;2.20;;;17.70;17.80;;;;;;5009554;28;20450;-72
2023/06/05 01:18:24;;;;;;;2.40;1.53;;;17.90;17.10;;;;;;5010067;28;20470;-71
2023/06/05 01:21:16;;;;;;;3.17;1.60;;;18.10;16.50;;;;;;5010153;28;20531;-71
2023/06/05 01:24:05;;;;;;;2.93;1.90;;;18.20;16.30;;;;;;5008895;28;20428;-71
2023/06/05 01:27:00;;;;;;;4.03;1.87;;;18.20;15.80;;;;;;5011275;28;20596;-71
2023/06/05 01:29:58;;;;;;;4.20;2.00;;;18.20;15.60;;;;;;5009126;28;20481;-71
2023/06/05 01:32:53;;;;;;;2.77;1.80;;;18.20;15.70;;;;;;5007798;28;21093;-71
2023/06/05 01:35:40;;;;;;;4.13;1.67;;;18.30;15.90;;;;;;5010132;28;20437;-71
2023/06/05 01:38:26;;;;;;;4.33;1.83;;;18.30;15.70;;;;;;5010139;28;20620;-71
2023/06/05 01:41:14;;;;;;;2.90;1.80;;;18.30;15.60;;;;;;5009861;28;20556;-71
2023/06/05 01:44:01;;;;;;;3.00;2.03;;;18.20;15.30;;;;;;5009249;28;20585;-70
2023/06/05 01:46:47;;;;;;;4.90;1.90;;;18.20;15.60;;;;;;5010088;28;20429;-70
2023/06/05 01:49:33;;;;;;;3.30;1.53;;;18.20;15.60;;;;;;5009857;28;20436;-71
2023/06/05 01:52:19;;;;;;;2.60;1.60;;;18.20;16.00;;;;;;5009428;28;20527;-71
2023/06/05 01:55:05;;;;;;;8.43;1.83;;;18.10;16.60;;;;;;5011183;28;20529;-71
2023/06/05 01:57:52;;;;;;;3.80;2.03;;;18.00;15.90;;;;;;5005748;28;20549;-70
2023/06/05 02:00:37;;;;;;;5.20;1.70;;;18.00;15.80;;;;;;5001852;28;20469;-71
2023/06/05 02:03:23;;;;;;;3.93;2.20;;;17.90;15.70;;;;;;5004887;28;20468;-71
2023/06/05 02:06:09;;;;;;;7.03;1.70;;;17.90;16.00;;;;;;5007285;28;20443;-70
2023/06/05 02:08:55;;;;;;;3.97;1.80;;;18.00;15.60;;;;;;5003970;28;20444;-71
2023/06/05 02:11:42;;;;;;;8.70;2.27;;;18.10;15.90;;;;;;5006836;28;20434;-71
2023/06/05 02:14:28;;;;;;;3.43;1.97;;;18.10;16.10;;;;;;5010320;28;21161;-71
2023/06/05 02:17:14;;;;;;;6.67;2.60;;;18.10;15.30;;;;;;5006445;28;20445;-71
2023/06/05 02:19:59;;;;;;;3.90;2.23;;;18.00;15.60;;;;;;5008931;28;20541;-71
2023/06/05 02:22:45;;;;;;;3.70;2.03;;;18.10;15.20;;;;;;5007242;28;20484;-70
2023/06/05 02:25:30;;;;;;;3.27;1.87;;;18.10;15.60;;;;;;5012031;28;20923;-70
2023/06/05 02:28:16;;;;;;;3.50;1.93;;;18.10;15.00;;;;;;5010645;28;20483;-71
2023/06/05 02:31:04;;;;;;;3.53;1.60;;;18.10;16.40;;;;;;5013149;28;20446;-71
2023/06/05 02:33:49;;;;;;;3.30;1.70;;;18.00;15.90;;;;;;5009130;28;20552;-70
2023/06/05 02:36:35;;;;;;;6.83;1.90;;;18.00;15.60;;;;;;5012630;28;20441;-71
2023/06/05 02:39:21;;;;;;;2.83;1.80;;;18.00;15.10;;;;;;5007864;28;20932;-70
2023/06/05 02:42:08;;;;;;;3.00;1.90;;;18.00;15.20;;;;;;5012980;28;20469;-70
2023/06/05 02:44:53;;;;;;;3.80;1.80;;;17.90;15.30;;;;;;5012501;28;20874;-70
2023/06/05 02:47:40;;;;;;;11.13;2.20;;;17.90;15.80;;;;;;5011998;28;20870;-71
2023/06/05 02:50:26;;;;;;;6.10;1.93;;;17.90;15.70;;;;;;5011074;28;21119;-70
2023/06/05 02:53:11;;;;;;;4.50;2.13;;;17.80;15.90;;;;;;5010146;28;20764;-70
2023/06/05 02:55:59;;;;;;;3.50;1.93;;;17.80;15.70;;;;;;5012757;28;20507;-70
2023/06/05 02:58:45;;;;;;;6.07;2.53;;;17.80;16.00;;;;;;5010538;28;20631;-71
2023/06/05 03:01:34;;;;;;;3.77;2.27;;;17.70;16.40;;;;;;5012696;28;20465;-70
2023/06/05 03:04:23;;;;;;;5.27;2.20;;;17.70;16.00;;;;;;5010558;28;20943;-71
2023/06/05 03:07:09;;;;;;;2.93;1.60;;;17.60;16.60;;;;;;5011185;28;20516;-71
2023/06/05 03:09:54;;;;;;;4.90;2.07;;;17.50;17.10;;;;;;5006251;28;20469;-71
2023/06/05 03:12:40;;;;;;;3.50;1.90;;;17.50;17.70;;;;;;5011601;28;20441;-70
2023/06/05 03:15:27;;;;;;;3.20;2.10;;;17.30;18.00;;;;;;5010763;28;20568;-71
2023/06/05 03:18:12;;;;;;;9.70;2.27;;;17.20;18.20;;;;;;5009124;28;20461;-71
2023/06/05 03:21:00;;;;;;;3.00;1.90;;;17.20;18.50;;;;;;5009372;28;20470;-71
2023/06/05 03:23:45;;;;;;;3.50;1.67;;;17.10;19.20;;;;;;5005989;28;21181;-70
2023/06/05 03:26:32;;;;;;;2.60;1.73;;;17.10;20.10;;;;;;5011764;28;20807;-71
2023/06/05 03:29:17;;;;;;;8.03;1.93;;;17.00;20.10;;;;;;5006184;28;21638;-71
2023/06/05 03:32:02;;;;;;;3.20;1.93;;;17.00;20.90;;;;;;5010803;28;20460;-70
2023/06/05 03:34:49;;;;;;;4.90;2.50;;;16.80;22.00;;;;;;5011307;28;20453;-71
2023/06/05 03:37:35;;;;;;;4.10;2.20;;;16.60;23.60;;;;;;5013295;28;20453;-70
2023/06/05 03:40:21;;;;;;;3.70;2.07;;;16.40;25.20;;;;;;5010528;28;20946;-70
2023/06/05 03:43:06;;;;;;;4.47;1.93;;;16.30;26.30;;;;;;5012366;28;20577;-70
2023/06/05 03:45:53;;;;;;;3.97;1.93;;;16.00;26.90;;;;;;5012153;28;20449;-71
2023/06/05 03:48:38;;;;;;;4.87;1.90;;;16.00;28.30;;;;;;5009874;28;20462;-71
2023/06/05 03:51:27;;;;;;;2.50;1.83;;;15.90;29.90;;;;;;5038486;23;20488;-73
2023/06/05 03:54:16;;;;;;;3.13;1.90;;;15.90;28.60;;;;;;5035688;28;20865;-74
2023/06/05 03:57:02;;;;;;;7.53;2.30;;;15.70;32.10;;;;;;5042993;28;20423;-73
2023/06/05 03:59:48;;;;;;;8.83;2.07;;;15.40;31.80;;;;;;5044991;28;20522;-74
2023/06/05 04:02:33;;;;;;;8.00;2.23;;;15.20;34.40;;;;;;5039978;28;20841;-73
2023/06/05 04:05:18;;;;;;;5.07;1.80;;;15.10;37.60;;;;;;5037739;28;20562;-74
2023/06/05 04:08:04;;;;;;;10.37;2.20;;;15.00;38.40;;;;;;5043772;28;20464;-74
2023/06/05 04:10:51;;;;;;;3.67;2.00;;;14.90;39.00;;;;;;5032461;28;20453;-73
2023/06/05 04:13:36;;;;;;;3.27;2.00;;;14.80;43.10;;;;;;5047151;28;20436;-71
2023/06/05 04:16:22;;;;;;;3.30;1.90;;;14.60;42.10;;;;;;5033752;28;20539;-72
2023/06/05 04:19:07;;;;;;;3.53;2.10;;;14.60;43.70;;;;;;5035490;28;20456;-71
2023/06/05 04:21:52;;;;;;;5.87;2.13;;;14.60;43.40;;;;;;5039689;28;21132;-71
2023/06/05 04:24:39;;;;;;;4.27;2.13;;;14.60;42.70;;;;;;5029398;28;20796;-72
2023/06/05 04:27:28;;;;;;;2.73;1.70;;;14.60;46.90;;;;;;5033252;28;20961;-71
2023/06/05 04:30:14;;;;;;;3.37;2.17;;;14.60;47.60;;;;;;5039258;28;20455;-72
2023/06/05 04:32:59;;;;;;;3.80;1.77;;;14.50;48.90;;;;;;5031205;28;20440;-71
2023/06/05 04:35:44;;;;;;;5.60;2.20;;;14.50;47.30;;;;;;5036987;28;20444;-72
2023/06/05 04:38:31;;;;;;;9.53;2.20;;;14.40;47.30;;;;;;5034448;28;20440;-71
2023/06/05 04:41:16;;;;;;;3.60;2.00;;;14.50;46.30;;;;;;5030818;28;20468;-71
2023/06/05 04:44:03;;;;;;;2.50;1.83;;;14.50;47.40;;;;;;5036696;28;20455;-71
2023/06/05 04:46:48;;;;;;;4.97;3.07;;;14.50;47.80;;;;;;5039167;28;21029;-71
2023/06/05 04:49:34;;;;;;;2.27;1.60;;;14.70;49.10;;;;;;5033172;28;20461;-71
2023/06/05 04:52:20;;;;;;;3.00;2.07;;;14.60;47.50;;;;;;5033323;28;20597;-72
2023/06/05 04:55:06;;;;;;;5.40;2.07;;;14.60;49.70;;;;;;5028038;28;20468;-71
2023/06/05 04:57:54;;;;;;;4.40;2.10;;;14.60;47.70;;;;;;5027821;28;20524;-72
2023/06/05 05:00:40;;;;;;;5.50;2.40;;;14.70;49.10;;;;;;5035540;28;20954;-72
2023/06/05 05:03:29;;;;;;;2.87;1.80;;;14.80;49.90;;;;;;5032664;28;20941;-71
2023/06/05 05:06:16;;;;;;;2.33;1.63;;;14.90;48.90;;;;;;5036734;28;20583;-71
2023/06/05 05:09:01;;;;;;;10.73;2.27;;;15.00;51.80;;;;;;5034690;28;20941;-71
2023/06/05 05:11:46;;;;;;;3.13;2.00;;;15.20;50.80;;;;;;5040042;28;20457;-71
2023/06/05 05:14:32;;;;;;;8.53;2.07;;;15.30;50.00;;;;;;5038701;28;20423;-71
2023/06/05 05:17:20;;;;;;;5.23;2.17;;;15.40;50.00;;;;;;5030996;28;20451;-71
2023/06/05 05:20:07;;;;;;;4.97;2.37;;;15.50;50.90;;;;;;5038475;28;20981;-71
2023/06/05 05:22:52;;;;;;;3.67;2.00;;;15.50;51.20;;;;;;5028230;28;20626;-71
2023/06/05 05:25:38;;;;;;;4.67;2.30;;;15.60;50.30;;;;;;5032136;28;20962;-71
2023/06/05 05:28:24;;;;;;;3.80;2.00;;;15.70;48.70;;;;;;5031928;28;20444;-71
2023/06/05 05:31:09;;;;;;;10.70;2.77;;;15.80;48.80;;;;;;5035557;28;20472;-71
2023/06/05 05:33:56;;;;;;;3.87;2.33;;;15.90;49.50;;;;;;5035585;28;20439;-72
2023/06/05 05:36:42;;;;;;;4.40;2.07;;;16.00;41.90;;;;;;5040975;28;20494;-71
2023/06/05 05:39:27;;;;;;;3.20;1.90;;;16.10;42.70;;;;;;5038357;28;20598;-71
2023/06/05 05:42:13;;;;;;;6.40;2.10;;;16.20;41.10;;;;;;5031997;28;20454;-72
2023/06/05 05:44:58;;;;;;;4.80;2.23;;;16.40;44.70;;;;;;5035700;28;20453;-71
2023/06/05 05:47:44;;;;;;;5.00;2.40;;;16.60;44.70;;;;;;5025062;28;20423;-72
2023/06/05 05:50:31;;;;;;;4.00;2.00;;;16.70;46.30;;;;;;5040367;28;20444;-72
2023/06/05 05:53:16;;;;;;;5.27;2.23;;;16.90;46.60;;;;;;5039575;28;20544;-71
2023/06/05 05:56:02;;;;;;;7.40;2.10;;;17.10;44.80;;;;;;5035449;28;20445;-72
2023/06/05 05:58:48;;;;;;;3.90;2.17;;;17.20;39.10;;;;;;5033365;28;20448;-72
2023/06/05 06:01:33;;;;;;;3.63;1.97;;;17.40;35.90;;;;;;5033551;28;20479;-71
2023/06/05 06:04:19;;;;;;;4.00;2.10;;;17.70;37.10;;;;;;5038681;28;20999;-71
2023/06/05 06:07:05;;;;;;;4.63;1.70;;;18.00;28.20;;;;;;5037034;28;20428;-71
2023/06/05 06:09:50;;;;;;;5.67;2.03;;;18.20;28.30;;;;;;5038338;28;20539;-72
2023/06/05 06:12:37;;;;;;;4.33;2.17;;;18.40;28.30;;;;;;5036403;28;20587;-72
2023/06/05 06:15:22;;;;;;;4.27;1.90;;;18.60;25.50;;;;;;5046175;28;20499;-71
2023/06/05 06:18:08;;;;;;;4.43;1.90;;;18.70;25.30;;;;;;5039591;28;20494;-72
2023/06/05 06:20:55;;;;;;;3.03;1.83;;;18.90;25.50;;;;;;5042019;28;20422;-71
2023/06/05 06:23:41;;;;;;;4.37;1.80;;;19.00;23.60;;;;;;5034573;28;20447;-72
2023/06/05 06:26:27;;;;;;;6.20;1.60;;;19.10;23.80;;;;;;5036621;28;20982;-72
2023/06/05 06:29:15;;;;;;;8.40;2.50;;;19.30;23.30;;;;;;5036174;28;20457;-72
2023/06/05 06:32:00;;;;;;;5.20;1.80;;;19.40;24.00;;;;;;5039281;28;20590;-72
2023/06/05 06:34:46;;;;;;;7.70;2.30;;;19.40;23.60;;;;;;5036446;28;20440;-71
2023/06/05 06:37:32;;;;;;;5.87;2.20;;;19.50;22.30;;;;;;5036431;28;21024;-72
2023/06/05 06:40:18;;;;;;;3.10;1.77;;;19.60;21.40;;;;;;5035627;28;20556;-72
2023/06/05 06:43:04;;;;;;;3.57;2.20;;;19.70;22.40;;;;;;5039191;28;20549;-72
2023/06/05 06:45:50;;;;;;;3.67;2.00;;;19.80;22.30;;;;;;5040633;28;20588;-71
2023/06/05 06:48:35;;;;;;;4.20;2.13;;;19.80;22.20;;;;;;5036667;28;20454;-71
2023/06/05 06:51:22;;;;;;;3.97;2.30;;;19.90;21.50;;;;;;5041004;28;20614;-72
2023/06/05 06:54:07;;;;;;;3.90;2.40;;;20.00;22.10;;;;;;5034819;28;20446;-72
2023/06/05 06:56:54;;;;;;;3.30;2.20;;;20.10;20.80;;;;;;5036078;28;20442;-72
2023/06/05 06:59:40;;;;;;;3.87;2.27;;;20.20;20.90;;;;;;5042599;28;20828;-72
2023/06/05 07:02:26;;;;;;;3.33;2.17;;;20.30;20.50;;;;;;5036519;28;20579;-72
2023/06/05 07:05:11;;;;;;;4.57;2.13;;;20.40;20.50;;;;;;5040031;28;20519;-71
2023/06/05 07:08:00;;;;;;;4.80;1.90;;;20.50;21.70;;;;;;5040958;28;20439;-72
2023/06/05 07:10:45;;;;;;;5.70;2.50;;;20.50;20.60;;;;;;5031164;28;20501;-72
2023/06/05 07:13:32;;;;;;;5.40;2.30;;;20.60;20.20;;;;;;5041950;28;20469;-71
2023/06/05 07:16:18;;;;;;;3.30;1.83;;;20.70;20.40;;;;;;5037997;28;20490;-72
2023/06/05 07:19:03;;;;;;;3.90;2.20;;;20.70;19.70;;;;;;5039825;28;20968;-72
2023/06/05 07:21:49;;;;;;;5.37;2.10;;;20.70;19.40;;;;;;5034731;28;20467;-72
2023/06/05 07:24:36;;;;;;;3.70;2.10;;;20.80;19.50;;;;;;5041852;28;20440;-72
2023/06/05 07:27:21;;;;;;;4.73;1.93;;;20.90;20.90;;;;;;5040794;28;20822;-72
2023/06/05 07:30:09;;;;;;;6.00;2.20;;;21.00;21.20;;;;;;5038165;28;20567;-71
2023/06/05 07:32:55;;;;;;;8.43;2.17;;;21.10;19.70;;;;;;5035447;28;20600;-72
2023/06/05 07:35:41;;;;;;;4.10;2.10;;;21.20;19.70;;;;;;5029688;28;20473;-72
2023/06/05 07:38:26;;;;;;;5.13;2.17;;;21.20;20.90;;;;;;5041481;28;20443;-72
2023/06/05 07:41:12;;;;;;;6.50;2.30;;;21.40;19.60;;;;;;5043330;28;20521;-72
2023/06/05 07:43:57;;;;;;;3.60;2.40;;;21.40;19.00;;;;;;5040435;28;20483;-72
2023/06/05 07:46:45;;;;;;;3.53;2.10;;;21.40;19.30;;;;;;5032998;28;20441;-72
2023/06/05 07:49:31;;;;;;;2.33;1.47;;;21.50;18.90;;;;;;5033281;28;20444;-71
2023/06/05 07:52:17;;;;;;;3.20;1.93;;;21.50;18.90;;;;;;5039136;28;20479;-71
2023/06/05 07:55:04;;;;;;;6.10;2.07;;;21.50;19.20;;;;;;5035929;28;20503;-72
2023/06/05 07:57:52;;;;;;;4.40;2.27;;;21.40;19.30;;;;;;5034755;28;21028;-71
2023/06/05 08:00:37;;;;;;;4.57;2.20;;;21.50;20.70;;;;;;5033148;28;20553;-72
2023/06/05 08:03:24;;;;;;;4.00;2.43;;;21.60;21.50;;;;;;5037160;28;20518;-72
2023/06/05 08:06:10;;;;;;;4.10;2.30;;;21.70;21.00;;;;;;5036683;28;20460;-72
2023/06/05 08:08:55;;;;;;;5.03;2.20;;;21.90;21.30;;;;;;5041080;28;20500;-71
2023/06/05 08:11:41;;;;;;;7.57;2.80;;;22.00;21.10;;;;;;5039661;28;20591;-71
2023/06/05 08:14:27;;;;;;;4.40;2.07;;;22.00;19.50;;;;;;5034230;28;20575;-71
2023/06/05 08:17:12;;;;;;;3.87;2.33;;;21.90;20.80;;;;;;5033782;28;20447;-72
2023/06/05 08:20:00;;;;;;;4.20;2.00;;;21.90;19.60;;;;;;5031730;28;20467;-71
2023/06/05 08:22:45;;;;;;;6.37;2.60;;;21.80;19.60;;;;;;5037530;28;20630;-71
2023/06/05 08:25:30;;;;;;;5.07;2.47;;;21.70;19.90;;;;;;5036734;28;20457;-72
2023/06/05 08:28:17;;;;;;;3.73;2.53;;;21.70;22.10;;;;;;5032445;28;20484;-72
2023/06/05 08:31:02;;;;;;;3.73;2.30;;;21.90;20.30;;;;;;5030764;28;20488;-71
2023/06/05 08:33:47;;;;;;;3.17;2.03;;;22.20;20.70;;;;;;5021044;28;20425;-71
2023/06/05 08:36:35;;;;;;;3.93;2.27;;;22.00;21.00;;;;;;5033003;28;20865;-71
2023/06/05 08:39:20;;;;;;;3.83;2.40;;;22.00;22.20;;;;;;5034955;28;20940;-71
2023/06/05 08:42:08;;;;;;;5.10;2.63;;;22.10;22.40;;;;;;5034227;28;20476;-71
2023/06/05 08:44:53;;;;;;;6.60;2.50;;;22.30;21.20;;;;;;5034090;28;21094;-72
2023/06/05 08:47:41;;;;;;;6.27;2.73;;;22.50;21.60;;;;;;5033718;28;20805;-72
2023/06/05 08:50:28;;;;;;;4.57;2.47;;;22.60;20.40;;;;;;5023914;28;20458;-71
2023/06/05 08:53:17;;;;;;;9.93;2.80;;;22.70;22.10;;;;;;5031175;28;20494;-72
2023/06/05 08:56:02;;;;;;;7.13;3.20;;;22.80;21.90;;;;;;5021278;28;20480;-73
2023/06/05 08:58:50;;;;;;;5.40;2.60;;;22.90;21.80;;;;;;5028346;28;20950;-71
2023/06/05 09:01:37;;;;;;;4.87;2.93;;;23.00;22.10;;;;;;5026999;28;20445;-72
2023/06/05 09:04:22;;;;;;;6.17;3.03;;;23.10;21.30;;;;;;5027158;28;20472;-72
2023/06/05 09:07:08;;;;;;;6.83;2.67;;;23.20;23.00;;;;;;5027263;28;20572;-70
2023/06/05 09:09:55;;;;;;;4.60;2.77;;;23.30;23.00;;;;;;5024726;28;20494;-71
2023/06/05 09:12:53;;;;;;;3.73;2.40;;;23.40;23.50;;;;;;5027375;28;20972;-71
2023/06/05 09:15:39;;;;;;;5.30;2.90;;;23.60;21.80;;;;;;5020877;28;20436;-71
2023/06/05 09:18:25;;;;;;;5.73;3.03;;;23.60;21.40;;;;;;5029477;28;20428;-72
2023/06/05 09:21:13;;;;;;;4.10;2.73;;;23.70;21.40;;;;;;5020797;28;20873;-71
2023/06/05 09:24:18;;;;;;;8.77;3.50;;;23.70;22.50;;;;;;5024630;28;20523;-71
2023/06/05 09:27:07;;;;;;;5.40;2.90;;;23.70;22.50;;;;;;5031419;28;20436;-71
2023/06/05 09:30:03;;;;;;;4.77;3.10;;;23.80;22.30;;;;;;5026830;28;20442;-72
2023/06/05 09:32:50;;;;;;;5.27;2.63;;;23.80;22.10;;;;;;5013118;28;21006;-71
2023/06/05 09:35:38;;;;;;;4.90;2.80;;;23.90;23.50;;;;;;5022509;28;20567;-71
2023/06/05 09:38:27;;;;;;;7.43;3.60;;;24.00;21.90;;;;;;5017525;28;20847;-71
2023/06/05 09:41:15;;;;;;;5.70;3.43;;;24.10;22.60;;;;;;5027744;28;20576;-71
2023/06/05 09:44:08;;;;;;;4.70;2.90;;;24.20;20.10;;;;;;5030511;28;20480;-71
2023/06/05 09:46:55;;;;;;;4.43;2.93;;;24.30;19.30;;;;;;5022671;28;20495;-72
2023/06/05 09:49:47;;;;;;;10.43;3.13;;;24.30;19.60;;;;;;5023196;28;20440;-71
2023/06/05 09:52:37;;;;;;;5.23;3.13;;;24.40;18.60;;;;;;5016668;28;20484;-70
2023/06/05 09:55:24;;;;;;;4.93;3.00;;;24.40;20.40;;;;;;5028399;28;20515;-71
2023/06/05 10:00:39;;;;;;;11.80;3.27;;;24.60;17.30;;;;;;5029126;28;20504;-71
2023/06/05 10:03:25;;;;;;;10.40;3.47;;;24.70;16.70;;;;;;5025465;28;20465;-71
2023/06/05 10:06:12;;;;;;;5.37;2.50;;;24.70;16.90;;;;;;5023935;28;20504;-71
2023/06/05 10:08:58;;;;;;;4.70;2.57;;;24.80;16.20;;;;;;5012910;28;20477;-70
2023/06/05 10:11:44;;;;;;;7.30;2.90;;;24.90;16.90;;;;;;5017724;28;21015;-70
2023/06/05 10:14:29;;;;;;;4.70;2.63;;;25.00;13.00;;;;;;5029772;28;20805;-70
2023/06/05 10:17:16;;;;;;;3.47;2.27;;;25.00;14.30;;;;;;5020625;28;20965;-70
2023/06/05 10:20:03;;;;;;;6.37;3.17;;;25.10;14.50;;;;;;5022039;28;20617;-71
2023/06/05 10:22:50;;;;;;;7.33;2.87;;;25.20;13.50;;;;;;5015738;28;20868;-70
2023/06/05 10:25:37;;;;;;;3.90;2.10;;;25.30;12.00;;;;;;5026158;28;20805;-70
2023/06/05 10:28:40;;;;;;;3.83;2.40;;;25.40;12.70;;;;;;5035566;28;20447;-69
2023/06/05 10:31:38;;;;;;;10.53;3.03;;;25.40;10.60;;;;;;5015082;28;20426;-69
2023/06/05 10:34:37;;;;;;;4.30;2.50;;;25.50;12.80;;;;;;5017745;28;20429;-69
2023/06/05 10:37:41;;;;;;;4.80;2.60;;;25.50;11.30;;;;;;5027535;28;20575;-70
2023/06/05 10:40:28;;;;;;;3.50;2.30;;;25.50;11.00;;;;;;5023438;28;21094;-69
2023/06/05 10:43:29;;;;;;;4.30;2.70;;;25.60;12.40;;;;;;5030036;28;20604;-69
2023/06/05 10:46:32;;;;;;;4.17;2.87;;;25.80;14.20;;;;;;5021758;28;21000;-70
2023/06/05 10:49:20;;;;;;;4.00;2.80;;;25.90;10.80;;;;;;5023237;28;20962;-70
2023/06/05 10:52:06;;;;;;;4.60;2.43;;;25.90;9.80;;;;;;5032502;28;20421;-70
2023/06/05 10:54:55;;;;;;;4.00;2.97;;;25.90;10.90;;;;;;5019879;28;20552;-69
2023/06/05 10:58:03;;;;;;;5.47;2.50;;;26.10;11.80;;;;;;5029092;28;20986;-69
2023/06/05 11:01:18;;;;;;;5.10;3.10;;;26.10;12.00;;;;;;5023475;28;20432;-69
2023/06/05 11:04:04;;;;;;;5.30;2.77;;;26.20;12.60;;;;;;5018651;28;20608;-70
2023/06/05 11:07:18;;;;;;;10.57;3.10;;;26.20;8.80;;;;;;5027103;28;20560;-69
2023/06/05 11:10:08;;;;;;;6.60;2.53;;;26.20;13.30;;;;;;5026232;28;20452;-69
2023/06/05 11:12:57;;;;;;;5.33;2.70;;;26.30;11.00;;;;;;5020232;28;20467;-69
2023/06/05 11:15:44;;;;;;;5.37;2.93;;;26.30;9.20;;;;;;5036641;28;21413;-69
2023/06/05 11:18:31;;;;;;;5.23;2.60;;;26.10;8.60;;;;;;5028338;28;20470;-69
2023/06/05 11:21:16;;;;;;;6.93;3.20;;;26.10;11.40;;;;;;5028875;28;20495;-69
2023/06/05 11:24:16;;;;;;;3.90;3.00;;;26.30;11.70;;;;;;5032672;28;20523;-70
2023/06/05 11:27:03;;;;;;;4.87;3.80;;;26.40;10.10;;;;;;5035270;28;22564;-71
2023/06/05 11:29:49;;;;;;;3.57;2.60;;;26.50;9.60;;;;;;5037379;28;20465;-70
2023/06/05 11:32:35;;;;;;;5.03;2.43;;;26.50;9.70;;;;;;5037023;28;20461;-70
2023/06/05 11:35:21;;;;;;;3.53;2.90;;;26.50;12.70;;;;;;5033994;28;20816;-71
2023/06/05 11:38:11;;;;;;;5.23;2.30;;;26.60;11.60;;;;;;5028599;28;20445;-71
2023/06/05 11:40:58;;;;;;;6.97;3.87;;;26.70;11.10;;;;;;5032438;28;20527;-72
2023/06/05 11:43:44;;;;;;;6.30;3.60;;;26.80;8.20;;;;;;5018191;28;20992;-72
2023/06/05 11:46:38;;;;;;;4.00;2.80;;;26.80;8.10;;;;;;5020684;28;20493;-71
2023/06/05 11:49:26;;;;;;;6.47;3.70;;;26.90;7.50;;;;;;5027006;28;20457;-71
2023/06/05 11:52:20;;;;;;;4.20;2.37;;;26.90;8.20;;;;;;5032498;28;20428;-72
2023/06/05 11:55:14;;;;;;;12.20;3.90;;;27.00;9.60;;;;;;5028239;28;20417;-72
2023/06/05 11:58:02;;;;;;;5.90;3.07;;;27.00;9.10;;;;;;5022733;28;20427;-71
2023/06/05 12:00:47;;;;;;;4.70;3.03;;;26.80;8.10;;;;;;5024989;28;20431;-71
2023/06/05 12:03:33;;;;;;;6.40;2.90;;;26.70;9.30;;;;;;5026013;28;20519;-72
2023/06/05 12:06:22;;;;;;;5.60;2.97;;;26.50;9.90;;;;;;5023091;28;20793;-71
2023/06/05 12:09:09;;;;;;;4.13;2.80;;;26.20;10.00;;;;;;5018627;28;20977;-71
2023/06/05 12:12:06;;;;;;;6.00;2.90;;;26.00;9.50;;;;;;5020955;28;20430;-72
2023/06/05 12:14:54;;;;;;;6.73;2.73;;;26.00;9.70;;;;;;5029808;28;20424;-72
2023/06/05 12:17:39;;;;;;;3.50;2.50;;;26.10;10.20;;;;;;5021265;28;20427;-71
2023/06/05 12:20:25;;;;;;;4.83;2.40;;;26.30;9.70;;;;;;5027106;28;20449;-72
2023/06/05 12:23:19;;;;;;;7.20;3.00;;;26.40;10.00;;;;;;5027411;28;20557;-71
2023/06/05 12:26:05;;;;;;;4.73;2.30;;;26.60;8.00;;;;;;5017503;28;20442;-72
2023/06/05 12:29:04;;;;;;;5.93;2.50;;;26.80;6.80;;;;;;5017276;28;20452;-71
2023/06/05 12:31:51;;;;;;;5.33;2.30;;;26.90;8.20;;;;;;5017941;28;20429;-71
2023/06/05 12:34:44;;;;;;;5.43;2.67;;;27.10;7.20;;;;;;5021715;28;20425;-72
2023/06/05 12:37:34;;;;;;;3.80;2.80;;;27.20;8.30;;;;;;5016417;28;20475;-72
2023/06/05 12:40:21;;;;;;;5.37;2.77;;;27.30;7.50;;;;;;5017784;28;20489;-71
2023/06/05 12:43:17;;;;;;;6.80;3.23;;;27.40;5.70;;;;;;5023879;28;20795;-72
2023/06/05 12:46:02;;;;;;;6.20;2.23;;;27.50;7.20;;;;;;5025446;28;20424;-72
2023/06/05 12:48:49;;;;;;;6.23;2.50;;;27.60;4.40;;;;;;5019908;28;20450;-71
2023/06/05 12:51:35;;;;;;;3.30;2.00;;;27.60;5.00;;;;;;5027892;28;20458;-72
2023/06/05 12:54:21;;;;;;;4.70;2.50;;;27.60;5.90;;;;;;5028712;28;20556;-71
2023/06/05 12:57:07;;;;;;;3.30;2.10;;;27.60;5.80;;;;;;5024841;28;20444;-72
2023/06/05 12:59:54;;;;;;;6.63;2.73;;;27.50;5.80;;;;;;5017013;28;20460;-71
2023/06/05 13:02:40;;;;;;;10.13;2.57;;;27.60;5.70;;;;;;5025715;28;20426;-72
2023/06/05 13:05:26;;;;;;;3.97;2.40;;;27.70;5.60;;;;;;5018951;28;20480;-72
2023/06/05 13:08:12;;;;;;;5.30;2.30;;;27.80;5.10;;;;;;5024158;28;20520;-71
2023/06/05 13:10:57;;;;;;;5.00;2.80;;;27.80;5.30;;;;;;5020468;28;20429;-72
2023/06/05 13:13:43;;;;;;;7.80;2.27;;;27.90;6.00;;;;;;5021538;28;20521;-72
2023/06/05 13:16:28;;;;;;;4.07;2.10;;;28.00;5.60;;;;;;5026503;28;20889;-71
2023/06/05 13:19:14;;;;;;;5.63;2.20;;;28.00;3.40;;;;;;5016574;28;20454;-72
2023/06/05 13:22:01;;;;;;;4.80;2.30;;;28.00;5.70;;;;;;5028986;28;21048;-72
2023/06/05 13:24:47;;;;;;;3.47;2.37;;;28.10;7.50;;;;;;5024561;28;20554;-71
2023/06/05 13:27:32;;;;;;;5.23;2.60;;;28.30;5.50;;;;;;5029639;28;20434;-72
2023/06/05 13:30:17;;;;;;;4.20;2.40;;;28.40;5.00;;;;;;5025904;28;20443;-71
2023/06/05 13:33:03;;;;;;;5.00;2.10;;;28.50;4.30;;;;;;5016838;28;20435;-71
2023/06/05 13:35:48;;;;;;;3.87;2.13;;;28.50;4.00;;;;;;5017184;28;20425;-71
2023/06/05 13:38:37;;;;;;;4.43;2.60;;;28.50;5.80;;;;;;5022281;28;20461;-71
2023/06/05 13:41:22;;;;;;;4.47;2.40;;;28.50;4.80;;;;;;5025337;28;20788;-71
2023/06/05 13:44:08;;;;;;;4.87;2.37;;;28.50;5.30;;;;;;5025966;28;20848;-72
2023/06/05 13:46:55;;;;;;;3.70;2.37;;;28.50;5.20;;;;;;5022325;28;20564;-72
2023/06/05 13:49:41;;;;;;;10.67;2.97;;;28.70;4.30;;;;;;5022423;28;20511;-72
2023/06/05 13:52:26;;;;;;;6.90;2.13;;;28.70;5.10;;;;;;5027626;28;20430;-72
2023/06/05 13:55:13;;;;;;;4.67;2.30;;;28.80;3.40;;;;;;5026357;28;20491;-72
2023/06/05 13:58:01;;;;;;;4.00;2.37;;;28.70;4.10;;;;;;5022925;28;20537;-72
2023/06/05 14:00:47;;;;;;;7.60;2.20;;;28.60;5.60;;;;;;5028901;28;20520;-71
2023/06/05 14:03:32;;;;;;;6.83;2.60;;;28.50;5.70;;;;;;5024991;28;20442;-71
2023/06/05 14:06:18;;;;;;;4.93;2.50;;;28.60;4.30;;;;;;5023988;28;20964;-72
2023/06/05 14:09:03;;;;;;;7.70;2.30;;;28.70;4.50;;;;;;5023440;28;20495;-71
2023/06/05 14:11:50;;;;;;;4.30;2.33;;;28.70;4.40;;;;;;5026259;28;20812;-72
2023/06/05 14:14:36;;;;;;;6.60;2.70;;;28.70;4.60;;;;;;5033667;28;20488;-72
2023/06/05 14:17:21;;;;;;;4.53;2.30;;;28.80;5.70;;;;;;5029783;28;20444;-70
2023/06/05 14:20:08;;;;;;;4.10;2.03;;;28.90;3.80;;;;;;5029011;28;20906;-70
2023/06/05 14:22:53;;;;;;;10.50;3.20;;;28.90;3.90;;;;;;5025380;28;20440;-71
2023/06/05 14:25:38;;;;;;;4.60;2.77;;;29.00;4.60;;;;;;5034044;28;20477;-71
2023/06/05 14:28:25;;;;;;;8.33;2.67;;;29.00;5.70;;;;;;5032783;28;20449;-70
2023/06/05 14:31:11;;;;;;;9.30;2.73;;;28.90;5.00;;;;;;5034536;28;20441;-71
2023/06/05 14:33:57;;;;;;;6.27;3.20;;;28.90;3.90;;;;;;5033420;28;20440;-71